createdAt,value
2022-07-27T00:00:20.338Z,93.68
2022-07-27T00:01:18.028Z,92.96
2022-07-27T00:02:14.726Z,91.40
2022-07-27T00:03:11.417Z,89.82
2022-07-27T00:04:08.196Z,93.05
2022-07-27T00:05:05.430Z,91.61
2022-07-27T00:06:02.081Z,93.25
2022-07-27T00:06:58.739Z,92.83
2022-07-27T00:07:55.415Z,93.26
2022-07-27T00:08:52.035Z,95.45
2022-07-27T00:09:48.636Z,97.08
2022-07-27T00:10:45.299Z,95.12
2022-07-27T00:11:41.905Z,94.92
2022-07-27T00:12:38.604Z,95.93
2022-07-27T00:13:35.361Z,95.42
2022-07-27T00:14:32.145Z,94.57
2022-07-27T00:15:28.949Z,92.85
2022-07-27T00:16:25.705Z,93.93
2022-07-27T00:17:23.994Z,94.92
2022-07-27T00:18:20.654Z,95.17
2022-07-27T00:19:17.290Z,93.95
2022-07-27T00:20:14.169Z,93.65
2022-07-27T00:21:10.918Z,93.50
2022-07-27T00:22:07.578Z,94.81
2022-07-27T00:23:04.267Z,95.90
2022-07-27T00:24:00.875Z,96.17
2022-07-27T00:24:57.512Z,95.87
2022-07-27T00:25:54.286Z,96.86
2022-07-27T00:26:51.368Z,97.87
2022-07-27T00:27:48.132Z,97.54
2022-07-27T00:28:44.747Z,98.19
2022-07-27T00:29:41.876Z,99.05
2022-07-27T00:30:38.619Z,100.00
2022-07-27T00:31:35.453Z,98.88
2022-07-27T00:32:32.140Z,97.18
2022-07-27T00:33:29.485Z,95.42
2022-07-27T00:34:26.424Z,94.59
2022-07-27T00:35:23.412Z,94.68
2022-07-27T00:36:20.050Z,94.04
2022-07-27T00:37:16.688Z,93.06
2022-07-27T00:38:13.380Z,94.17
2022-07-27T00:39:10.254Z,92.67
2022-07-27T00:40:08.503Z,92.72
2022-07-27T00:41:05.982Z,94.50
2022-07-27T00:42:02.569Z,94.71
2022-07-27T00:42:59.225Z,95.21
2022-07-27T00:43:57.849Z,95.53
2022-07-27T00:44:55.486Z,88.79
2022-07-27T00:45:52.269Z,86.05
2022-07-27T00:46:48.971Z,90.00
2022-07-27T00:47:45.685Z,91.59
2022-07-27T00:48:42.374Z,94.16
2022-07-27T00:49:39.004Z,95.50
2022-07-27T00:50:36.205Z,95.22
2022-07-27T00:51:33.092Z,93.96
2022-07-27T00:52:30.854Z,92.81
2022-07-27T00:53:27.838Z,93.69
2022-07-27T00:54:25.174Z,93.78
2022-07-27T00:55:22.039Z,94.11
2022-07-27T00:56:18.834Z,94.05
2022-07-27T00:57:16.596Z,94.78
2022-07-27T00:58:13.561Z,94.42
2022-07-27T00:59:12.262Z,94.22
2022-07-27T01:00:09.967Z,92.55
2022-07-27T01:01:06.902Z,91.62
2022-07-27T01:02:05.054Z,92.24
2022-07-27T01:03:09.224Z,93.25
2022-07-27T01:04:06.720Z,93.38
2022-07-27T01:05:05.138Z,95.56
2022-07-27T01:06:03.607Z,93.50
2022-07-27T01:07:05.296Z,93.32
2022-07-27T01:08:02.441Z,93.25
2022-07-27T01:09:18.145Z,94.50
2022-07-27T01:10:14.884Z,93.19
2022-07-27T01:11:11.957Z,90.73
2022-07-27T01:12:13.894Z,88.55
2022-07-27T01:13:13.139Z,87.69
2022-07-27T01:14:13.341Z,86.26
2022-07-27T01:15:10.306Z,88.33
2022-07-27T01:16:07.745Z,91.18
2022-07-27T01:17:04.502Z,91.47
2022-07-27T01:18:01.099Z,93.21
2022-07-27T01:18:57.715Z,95.56
2022-07-27T01:19:54.342Z,95.56
2022-07-27T01:20:50.930Z,95.18
2022-07-27T01:21:47.552Z,95.00
2022-07-27T01:22:44.164Z,94.46
2022-07-27T01:23:40.778Z,95.97
2022-07-27T01:24:38.277Z,97.45
2022-07-27T01:25:34.996Z,97.97
2022-07-27T01:26:35.105Z,98.32
2022-07-27T01:27:31.723Z,100.00
2022-07-27T01:28:28.749Z,99.35
2022-07-27T01:29:25.368Z,99.73
2022-07-27T01:30:29.593Z,99.24
2022-07-27T01:31:27.073Z,100.00
2022-07-27T01:32:23.792Z,95.86
2022-07-27T01:33:26.056Z,95.31
2022-07-27T01:34:22.933Z,98.90
2022-07-27T01:35:19.582Z,98.75
2022-07-27T01:36:17.419Z,100.00
2022-07-27T01:37:14.052Z,100.00
2022-07-27T01:38:12.287Z,100.00
2022-07-27T01:39:09.284Z,100.00
2022-07-27T01:40:06.455Z,100.00
2022-07-27T01:41:03.240Z,100.00
2022-07-27T01:42:00.713Z,100.00
2022-07-27T01:42:57.394Z,100.00
2022-07-27T01:43:54.042Z,100.00
2022-07-27T01:44:50.823Z,100.00
2022-07-27T01:45:48.282Z,100.00
2022-07-27T01:46:45.461Z,100.00
2022-07-27T01:47:42.114Z,100.00
2022-07-27T01:48:38.790Z,100.00
2022-07-27T01:49:35.472Z,100.00
2022-07-27T01:50:32.190Z,100.00
2022-07-27T01:51:28.828Z,100.00
2022-07-27T01:52:25.451Z,100.00
2022-07-27T01:53:23.230Z,100.00
2022-07-27T01:54:19.906Z,100.00
2022-07-27T01:55:16.513Z,100.00
2022-07-27T01:56:13.849Z,100.00
2022-07-27T01:57:10.795Z,100.00
2022-07-27T01:58:09.381Z,100.00
2022-07-27T01:59:06.234Z,99.20
2022-07-27T02:00:10.427Z,100.00
2022-07-27T02:01:07.971Z,100.00
2022-07-27T02:02:04.775Z,100.00
2022-07-27T02:03:02.503Z,100.00
2022-07-27T02:03:59.143Z,100.00
2022-07-27T02:04:55.830Z,100.00
2022-07-27T02:05:52.446Z,100.00
2022-07-27T02:06:49.075Z,100.00
2022-07-27T02:07:45.787Z,100.00
2022-07-27T02:08:42.501Z,100.00
2022-07-27T02:09:39.161Z,100.00
2022-07-27T02:10:37.262Z,100.00
2022-07-27T02:11:52.210Z,100.00
2022-07-27T02:12:49.104Z,100.00
2022-07-27T02:13:47.468Z,100.00
2022-07-27T02:14:44.173Z,100.00
2022-07-27T02:15:44.596Z,100.00
2022-07-27T02:16:41.451Z,100.00
2022-07-27T02:17:40.243Z,100.00
2022-07-27T02:18:38.495Z,100.00
2022-07-27T02:19:35.523Z,100.00
2022-07-27T02:20:32.223Z,100.00
2022-07-27T02:21:28.853Z,100.00
2022-07-27T02:22:25.499Z,100.00
2022-07-27T02:23:22.512Z,100.00
2022-07-27T02:24:19.178Z,100.00
2022-07-27T02:25:17.894Z,100.00
2022-07-27T02:26:14.976Z,100.00
2022-07-27T02:27:11.632Z,100.00
2022-07-27T02:28:09.053Z,100.00
2022-07-27T02:29:05.641Z,100.00
2022-07-27T02:30:02.731Z,100.00
2022-07-27T02:30:59.874Z,100.00
2022-07-27T02:31:57.030Z,100.00
2022-07-27T02:32:53.769Z,100.00
2022-07-27T02:33:50.770Z,100.00
2022-07-27T02:34:47.865Z,100.00
2022-07-27T02:35:44.676Z,100.00
2022-07-27T02:36:41.321Z,100.00
2022-07-27T02:37:38.057Z,100.00
2022-07-27T02:38:34.713Z,100.00
2022-07-27T02:39:31.363Z,100.00
2022-07-27T02:40:28.104Z,100.00
2022-07-27T02:41:25.190Z,100.00
2022-07-27T02:42:22.092Z,100.00
2022-07-27T02:43:18.718Z,100.00
2022-07-27T02:44:17.403Z,100.00
2022-07-27T02:45:17.191Z,100.00
2022-07-27T02:46:13.877Z,100.00
2022-07-27T02:47:10.763Z,100.00
2022-07-27T02:48:08.385Z,100.00
2022-07-27T02:49:05.680Z,100.00
2022-07-27T02:50:03.124Z,100.00
2022-07-27T02:51:01.635Z,100.00
2022-07-27T02:51:58.340Z,100.00
2022-07-27T02:52:54.948Z,100.00
2022-07-27T02:53:51.536Z,100.00
2022-07-27T02:54:48.236Z,100.00
2022-07-27T02:55:44.942Z,100.00
2022-07-27T02:56:41.531Z,100.00
2022-07-27T02:57:41.113Z,100.00
2022-07-27T02:58:38.049Z,100.00
2022-07-27T02:59:34.724Z,100.00
2022-07-27T03:00:31.515Z,100.00
2022-07-27T03:01:28.261Z,100.00
2022-07-27T03:02:25.157Z,100.00
2022-07-27T03:03:21.897Z,100.00
2022-07-27T03:04:19.381Z,100.00
2022-07-27T03:05:16.418Z,100.00
2022-07-27T03:06:13.979Z,100.00
2022-07-27T03:07:10.677Z,100.00
2022-07-27T03:08:07.311Z,100.00
2022-07-27T03:09:04.811Z,100.00
2022-07-27T03:10:01.488Z,100.00
2022-07-27T03:10:58.145Z,100.00
2022-07-27T03:11:54.799Z,100.00
2022-07-27T03:12:51.435Z,100.00
2022-07-27T03:13:48.177Z,100.00
2022-07-27T03:14:44.826Z,100.00
2022-07-27T03:15:41.574Z,100.00
2022-07-27T03:16:38.316Z,100.00
2022-07-27T03:17:34.949Z,100.00
2022-07-27T03:18:31.604Z,100.00
2022-07-27T03:19:30.451Z,100.00
2022-07-27T03:20:27.317Z,100.00
2022-07-27T03:21:24.634Z,100.00
2022-07-27T03:22:21.291Z,100.00
2022-07-27T03:23:18.433Z,100.00
2022-07-27T03:24:15.052Z,100.00
2022-07-27T03:25:11.731Z,100.00
2022-07-27T03:26:08.497Z,100.00
2022-07-27T03:27:05.110Z,100.00
2022-07-27T03:28:04.202Z,100.00
2022-07-27T03:29:01.213Z,100.00
2022-07-27T03:29:57.805Z,100.00
2022-07-27T03:30:54.550Z,100.00
2022-07-27T03:31:51.169Z,100.00
2022-07-27T03:32:48.457Z,100.00
2022-07-27T03:33:45.434Z,100.00
2022-07-27T03:34:42.190Z,100.00
2022-07-27T03:35:38.819Z,100.00
2022-07-27T03:36:36.325Z,100.00
2022-07-27T03:37:33.897Z,100.00
2022-07-27T03:38:30.589Z,100.00
2022-07-27T03:39:27.233Z,100.00
2022-07-27T03:40:23.887Z,100.00
2022-07-27T03:41:20.503Z,100.00
2022-07-27T03:42:17.211Z,100.00
2022-07-27T03:43:13.867Z,100.00
2022-07-27T03:44:10.773Z,100.00
2022-07-27T03:45:08.693Z,100.00
2022-07-27T03:46:05.717Z,100.00
2022-07-27T03:47:02.347Z,100.00
2022-07-27T03:47:59.047Z,100.00
2022-07-27T03:48:57.192Z,100.00
2022-07-27T03:49:53.943Z,100.00
2022-07-27T03:50:50.733Z,100.00
2022-07-27T03:51:47.390Z,100.00
2022-07-27T03:52:45.479Z,100.00
2022-07-27T03:53:42.459Z,100.00
2022-07-27T03:54:39.151Z,100.00
2022-07-27T03:55:35.753Z,100.00
2022-07-27T03:56:33.257Z,100.00
2022-07-27T03:57:29.930Z,100.00
2022-07-27T03:58:26.680Z,100.00
2022-07-27T03:59:23.429Z,100.00
2022-07-27T04:00:20.821Z,100.00
2022-07-27T04:01:17.513Z,100.00
2022-07-27T04:02:14.348Z,100.00
2022-07-27T04:03:11.178Z,100.00
2022-07-27T04:04:07.840Z,100.00
2022-07-27T04:05:04.933Z,100.00
2022-07-27T04:06:01.583Z,100.00
2022-07-27T04:06:58.749Z,100.00
2022-07-27T04:07:55.365Z,100.00
2022-07-27T04:08:54.993Z,100.00
2022-07-27T04:09:56.173Z,100.00
2022-07-27T04:10:52.808Z,100.00
2022-07-27T04:11:51.049Z,100.00
2022-07-27T04:12:48.279Z,100.00
2022-07-27T04:13:46.702Z,100.00
2022-07-27T04:14:44.093Z,100.00
2022-07-27T04:15:40.743Z,100.00
2022-07-27T04:16:37.455Z,100.00
2022-07-27T04:17:55.025Z,100.00
2022-07-27T04:18:50.940Z,100.00
2022-07-27T04:19:47.675Z,100.00
2022-07-27T04:20:44.341Z,100.00
2022-07-27T04:21:41.065Z,100.00
2022-07-27T04:22:37.838Z,100.00
2022-07-27T04:23:38.149Z,100.00
2022-07-27T04:24:35.262Z,100.00
2022-07-27T04:25:31.966Z,100.00
2022-07-27T04:26:28.840Z,100.00
2022-07-27T04:27:25.473Z,100.00
2022-07-27T04:28:22.147Z,100.00
2022-07-27T04:29:20.756Z,100.00
2022-07-27T04:30:17.899Z,100.00
2022-07-27T04:31:14.712Z,100.00
2022-07-27T04:32:11.433Z,100.00
2022-07-27T04:33:08.064Z,100.00
2022-07-27T04:34:04.731Z,100.00
2022-07-27T04:35:01.499Z,100.00
2022-07-27T04:35:58.108Z,100.00
2022-07-27T04:36:54.803Z,100.00
2022-07-27T04:37:58.821Z,100.00
2022-07-27T04:38:56.344Z,100.00
2022-07-27T04:39:57.679Z,100.00
2022-07-27T04:40:58.223Z,98.20
2022-07-27T04:41:55.164Z,96.81
2022-07-27T04:42:51.800Z,94.37
2022-07-27T04:43:48.448Z,93.62
2022-07-27T04:44:45.080Z,94.07
2022-07-27T04:45:41.777Z,93.32
2022-07-27T04:46:38.607Z,94.66
2022-07-27T04:47:35.311Z,93.50
2022-07-27T04:48:33.579Z,91.04
2022-07-27T04:49:30.270Z,91.85
2022-07-27T04:50:26.990Z,88.92
2022-07-27T04:51:23.706Z,90.60
2022-07-27T04:52:26.599Z,89.77
2022-07-27T04:53:24.023Z,88.84
2022-07-27T04:54:20.672Z,91.86
2022-07-27T04:55:17.310Z,88.60
2022-07-27T04:56:14.005Z,89.85
2022-07-27T04:57:10.818Z,91.89
2022-07-27T04:58:07.576Z,91.93
2022-07-27T04:59:04.361Z,89.14
2022-07-27T05:00:01.090Z,91.34
2022-07-27T05:00:57.867Z,93.45
2022-07-27T05:01:55.526Z,95.20
2022-07-27T05:02:52.451Z,94.76
2022-07-27T05:03:49.087Z,95.07
2022-07-27T05:04:46.067Z,94.81
2022-07-27T05:05:49.716Z,95.61
2022-07-27T05:06:46.855Z,95.02
2022-07-27T05:07:43.467Z,94.17
2022-07-27T05:08:40.105Z,96.54
2022-07-27T05:09:36.713Z,98.08
2022-07-27T05:10:33.497Z,96.62
2022-07-27T05:11:30.187Z,94.35
2022-07-27T05:12:26.942Z,94.68
2022-07-27T05:13:23.568Z,96.18
2022-07-27T05:14:21.280Z,94.38
2022-07-27T05:15:18.785Z,95.13
2022-07-27T05:16:15.546Z,91.88
2022-07-27T05:17:12.193Z,91.27
2022-07-27T05:18:08.894Z,90.82
2022-07-27T05:19:05.539Z,88.76
2022-07-27T05:20:02.514Z,85.68
2022-07-27T05:20:59.169Z,83.52
2022-07-27T05:21:55.813Z,82.96
2022-07-27T05:22:52.699Z,84.41
2022-07-27T05:23:49.307Z,82.75
2022-07-27T05:24:45.938Z,79.93
2022-07-27T05:25:42.559Z,78.02
2022-07-27T05:26:39.272Z,80.24
2022-07-27T05:27:37.520Z,78.24
2022-07-27T05:28:51.539Z,80.06
2022-07-27T05:29:48.145Z,80.59
2022-07-27T05:30:45.011Z,78.73
2022-07-27T05:31:41.676Z,78.19
2022-07-27T05:32:38.319Z,76.67
2022-07-27T05:33:35.331Z,76.42
2022-07-27T05:34:32.096Z,76.60
2022-07-27T05:35:28.851Z,77.87
2022-07-27T05:36:26.010Z,80.04
2022-07-27T05:37:22.639Z,83.41
2022-07-27T05:38:19.242Z,82.72
2022-07-27T05:39:16.137Z,85.24
2022-07-27T05:40:13.748Z,85.59
2022-07-27T05:41:10.411Z,86.18
2022-07-27T05:42:07.127Z,85.63
2022-07-27T05:43:04.048Z,86.76
2022-07-27T05:44:00.745Z,88.98
2022-07-27T05:44:57.381Z,86.29
2022-07-27T05:45:54.623Z,87.34
2022-07-27T05:46:51.319Z,87.74
2022-07-27T05:47:47.947Z,89.49
2022-07-27T05:48:44.728Z,91.60
2022-07-27T05:49:41.556Z,87.38
2022-07-27T05:50:38.256Z,90.43
2022-07-27T05:51:35.191Z,91.75
2022-07-27T05:52:31.776Z,88.45
2022-07-27T05:53:28.577Z,86.60
2022-07-27T05:54:25.334Z,86.46
2022-07-27T05:55:21.956Z,84.28
2022-07-27T05:56:18.588Z,83.90
2022-07-27T05:57:15.665Z,85.67
2022-07-27T05:58:12.397Z,85.33
2022-07-27T05:59:09.141Z,82.88
2022-07-27T06:00:07.577Z,78.52
2022-07-27T06:01:04.269Z,77.92
2022-07-27T06:02:00.921Z,76.44
2022-07-27T06:02:57.544Z,72.95
2022-07-27T06:03:54.229Z,73.04
2022-07-27T06:04:50.893Z,74.10
2022-07-27T06:05:47.634Z,79.78
2022-07-27T06:07:03.121Z,80.36
2022-07-27T06:07:59.826Z,82.05
2022-07-27T06:08:56.619Z,79.42
2022-07-27T06:09:53.244Z,76.82
2022-07-27T06:10:49.875Z,76.08
2022-07-27T06:11:46.477Z,72.72
2022-07-27T06:12:44.742Z,70.81
2022-07-27T06:13:42.191Z,70.49
2022-07-27T06:14:39.425Z,72.19
2022-07-27T06:15:36.949Z,75.25
2022-07-27T06:16:34.223Z,73.96
2022-07-27T06:17:30.963Z,72.37
2022-07-27T06:18:27.605Z,73.45
2022-07-27T06:19:24.489Z,73.97
2022-07-27T06:20:32.939Z,72.75
2022-07-27T06:21:29.610Z,70.33
2022-07-27T06:22:26.261Z,68.15
2022-07-27T06:23:22.882Z,68.68
2022-07-27T06:24:19.575Z,71.34
2022-07-27T06:25:17.158Z,73.05
2022-07-27T06:26:14.131Z,72.12
2022-07-27T06:27:10.763Z,70.41
2022-07-27T06:28:07.416Z,67.55
2022-07-27T06:29:09.972Z,67.96
2022-07-27T06:30:08.750Z,68.24
2022-07-27T06:31:06.787Z,71.68
2022-07-27T06:32:06.752Z,72.08
2022-07-27T06:33:06.057Z,73.02
2022-07-27T06:34:08.171Z,74.85
2022-07-27T06:35:09.423Z,76.58
2022-07-27T06:36:08.361Z,74.10
2022-07-27T06:37:05.045Z,74.52
2022-07-27T06:38:02.860Z,74.38
2022-07-27T06:38:59.499Z,73.26
2022-07-27T06:39:56.893Z,76.44
2022-07-27T06:40:54.430Z,79.16
2022-07-27T06:41:54.878Z,76.03
2022-07-27T06:42:54.664Z,78.37
2022-07-27T06:43:51.341Z,77.98
2022-07-27T06:44:48.027Z,77.52
2022-07-27T06:45:44.697Z,75.89
2022-07-27T06:46:41.401Z,72.73
2022-07-27T06:47:48.907Z,73.14
2022-07-27T06:48:46.671Z,74.51
2022-07-27T06:49:43.364Z,73.73
2022-07-27T06:50:40.187Z,74.28
2022-07-27T06:51:38.023Z,75.48
2022-07-27T06:52:35.320Z,73.22
2022-07-27T06:53:36.167Z,70.77
2022-07-27T06:54:33.739Z,68.90
2022-07-27T06:55:30.370Z,68.75
2022-07-27T06:56:27.052Z,68.93
2022-07-27T06:57:23.671Z,67.58
2022-07-27T06:58:20.320Z,68.38
2022-07-27T06:59:16.998Z,68.94
2022-07-27T07:00:14.853Z,67.66
2022-07-27T07:01:11.544Z,64.18
2022-07-27T07:02:08.694Z,62.00
2022-07-27T07:03:06.383Z,59.59
2022-07-27T07:04:03.172Z,58.07
2022-07-27T07:04:59.950Z,56.96
2022-07-27T07:05:57.060Z,56.46
2022-07-27T07:06:53.852Z,59.49
2022-07-27T07:07:51.090Z,60.98
2022-07-27T07:08:47.869Z,61.59
2022-07-27T07:09:44.507Z,60.00
2022-07-27T07:10:43.624Z,58.27
2022-07-27T07:11:40.260Z,58.30
2022-07-27T07:12:36.890Z,56.87
2022-07-27T07:13:37.770Z,57.91
2022-07-27T07:14:36.811Z,60.67
2022-07-27T07:15:34.950Z,61.94
2022-07-27T07:16:31.685Z,62.58
2022-07-27T07:17:28.355Z,63.05
2022-07-27T07:18:24.979Z,62.48
2022-07-27T07:19:21.692Z,61.35
2022-07-27T07:20:19.129Z,60.01
2022-07-27T07:21:16.713Z,60.98
2022-07-27T07:22:13.533Z,59.72
2022-07-27T07:23:10.717Z,59.36
2022-07-27T07:24:07.462Z,58.93
2022-07-27T07:25:04.313Z,58.63
2022-07-27T07:26:00.909Z,56.78
2022-07-27T07:26:57.567Z,55.04
2022-07-27T07:27:55.176Z,54.72
2022-07-27T07:28:51.862Z,54.62
2022-07-27T07:29:48.496Z,54.86
2022-07-27T07:30:45.115Z,56.13
2022-07-27T07:31:41.940Z,55.51
2022-07-27T07:32:38.595Z,55.41
2022-07-27T07:33:35.267Z,54.61
2022-07-27T07:34:32.391Z,54.37
2022-07-27T07:35:29.941Z,55.84
2022-07-27T07:36:27.012Z,56.08
2022-07-27T07:37:23.848Z,56.41
2022-07-27T07:38:30.370Z,56.43
2022-07-27T07:39:31.280Z,56.61
2022-07-27T07:40:45.117Z,57.17
2022-07-27T07:41:42.103Z,54.42
2022-07-27T07:43:11.455Z,53.94
2022-07-27T07:44:09.152Z,53.19
2022-07-27T07:45:06.383Z,53.76
2022-07-27T07:46:03.298Z,54.15
2022-07-27T07:47:00.961Z,52.43
2022-07-27T07:47:58.215Z,51.39
2022-07-27T07:48:54.866Z,52.15
2022-07-27T07:49:51.544Z,52.32
2022-07-27T07:50:52.103Z,51.80
2022-07-27T07:51:49.785Z,52.11
2022-07-27T07:52:48.573Z,52.75
2022-07-27T07:53:45.233Z,53.29
2022-07-27T07:54:41.870Z,53.52
2022-07-27T07:55:38.587Z,52.57
2022-07-27T07:56:35.289Z,51.93
2022-07-27T07:57:31.946Z,51.91
2022-07-27T07:58:28.645Z,50.74
2022-07-27T07:59:25.488Z,50.62
2022-07-27T08:00:23.099Z,50.27
2022-07-27T08:01:19.743Z,52.50
2022-07-27T08:02:16.476Z,53.46
2022-07-27T08:03:13.431Z,53.06
2022-07-27T08:04:10.172Z,51.94
2022-07-27T08:05:07.576Z,51.11
2022-07-27T08:06:04.541Z,51.77
2022-07-27T08:07:01.355Z,53.91
2022-07-27T08:07:58.074Z,52.85
2022-07-27T08:08:54.869Z,52.38
2022-07-27T08:09:51.479Z,52.35
2022-07-27T08:10:48.144Z,52.06
2022-07-27T08:11:44.977Z,53.22
2022-07-27T08:12:44.952Z,53.64
2022-07-27T08:13:41.679Z,52.44
2022-07-27T08:14:38.263Z,50.79
2022-07-27T08:15:36.225Z,51.10
2022-07-27T08:16:33.306Z,49.98
2022-07-27T08:17:30.142Z,49.66
2022-07-27T08:18:26.794Z,49.22
2022-07-27T08:19:23.516Z,49.16
2022-07-27T08:20:21.344Z,48.46
2022-07-27T08:21:18.084Z,47.54
2022-07-27T08:22:14.788Z,47.29
2022-07-27T08:23:13.212Z,49.47
2022-07-27T08:24:09.824Z,49.28
2022-07-27T08:25:07.675Z,49.86
2022-07-27T08:26:07.770Z,49.64
2022-07-27T08:27:05.075Z,50.01
2022-07-27T08:28:02.568Z,51.32
2022-07-27T08:28:59.596Z,52.21
2022-07-27T08:30:11.697Z,51.58
2022-07-27T08:31:14.116Z,50.82
2022-07-27T08:32:11.524Z,50.04
2022-07-27T08:33:08.326Z,50.88
2022-07-27T08:34:04.931Z,51.22
2022-07-27T08:35:02.117Z,50.48
2022-07-27T08:35:59.642Z,50.05
2022-07-27T08:36:56.587Z,50.28
2022-07-27T08:37:53.679Z,50.22
2022-07-27T08:38:50.400Z,49.47
2022-07-27T08:40:37.985Z,48.65
2022-07-27T08:41:04.228Z,49.50
2022-07-27T08:42:06.578Z,50.54
2022-07-27T08:43:05.125Z,52.10
2022-07-27T08:44:03.328Z,51.90
2022-07-27T08:45:00.557Z,50.61
2022-07-27T08:45:59.373Z,51.02
2022-07-27T08:46:57.169Z,48.47
2022-07-27T08:47:53.903Z,47.76
2022-07-27T08:48:51.026Z,47.33
2022-07-27T08:49:49.688Z,48.69
2022-07-27T08:50:48.799Z,48.84
2022-07-27T08:51:47.327Z,47.56
2022-07-27T08:52:44.823Z,46.92
2022-07-27T08:53:53.545Z,46.33
2022-07-27T08:54:50.834Z,44.74
2022-07-27T08:55:48.210Z,44.85
2022-07-27T08:56:44.896Z,45.20
2022-07-27T08:57:41.586Z,45.04
2022-07-27T08:58:38.211Z,45.27
2022-07-27T08:59:34.927Z,44.32
2022-07-27T09:00:32.827Z,43.97
2022-07-27T09:01:32.989Z,43.72
2022-07-27T09:02:29.719Z,43.94
2022-07-27T09:03:26.595Z,43.40
2022-07-27T09:04:23.417Z,44.17
2022-07-27T09:05:20.211Z,43.51
2022-07-27T09:06:53.446Z,42.24
2022-07-27T09:07:51.164Z,42.28
2022-07-27T09:08:59.228Z,42.79
2022-07-27T09:09:55.908Z,42.76
2022-07-27T09:10:58.060Z,42.71
2022-07-27T09:12:10.808Z,43.45
2022-07-27T09:13:26.836Z,42.99
2022-07-27T09:14:31.100Z,42.30
2022-07-27T09:15:34.217Z,43.34
2022-07-27T09:17:02.922Z,43.30
2022-07-27T09:17:49.649Z,43.02
2022-07-27T09:18:47.488Z,43.56
2022-07-27T09:20:18.593Z,42.81
2022-07-27T09:21:21.798Z,42.61
2022-07-27T09:22:39.128Z,42.51
2022-07-27T09:23:36.479Z,42.77
2022-07-27T09:24:48.466Z,41.65
2022-07-27T09:26:03.240Z,41.40
2022-07-27T09:27:03.600Z,40.83
2022-07-27T09:28:00.880Z,40.93
2022-07-27T09:29:03.904Z,40.27
2022-07-27T09:30:11.602Z,40.24
2022-07-27T09:31:16.289Z,39.90
2022-07-27T09:32:16.247Z,39.40
2022-07-27T09:33:15.321Z,40.12
2022-07-27T09:34:14.127Z,40.93
2022-07-27T09:35:34.465Z,40.78
2022-07-27T09:36:31.531Z,40.32
2022-07-27T09:37:28.762Z,39.58
2022-07-27T09:38:25.514Z,39.77
2022-07-27T09:39:25.025Z,40.06
2022-07-27T09:40:24.266Z,40.04
2022-07-27T09:41:23.482Z,39.92
2022-07-27T09:43:05.691Z,40.07
2022-07-27T09:45:34.361Z,40.20
2022-07-27T09:46:34.423Z,39.77
2022-07-27T09:47:31.555Z,39.72
2022-07-27T09:48:28.175Z,38.70
2022-07-27T09:49:33.798Z,39.71
2022-07-27T09:50:35.335Z,38.95
2022-07-27T09:51:58.893Z,39.59
2022-07-27T09:52:50.203Z,39.15
2022-07-27T09:53:47.218Z,39.39
2022-07-27T09:54:46.705Z,38.70
2022-07-27T09:55:44.767Z,39.48
2022-07-27T09:56:41.956Z,39.21
2022-07-27T09:57:58.518Z,38.70
2022-07-27T09:59:03.096Z,38.48
2022-07-27T10:00:13.879Z,39.17
2022-07-27T10:01:17.464Z,38.05
2022-07-27T10:02:15.100Z,37.49
2022-07-27T10:03:12.074Z,37.22
2022-07-27T10:04:09.103Z,37.25
2022-07-27T10:05:07.599Z,37.83
2022-07-27T10:06:04.639Z,38.28
2022-07-27T10:07:05.267Z,38.62
2022-07-27T10:08:04.226Z,36.74
2022-07-27T10:09:01.957Z,37.00
2022-07-27T10:09:58.932Z,37.14
2022-07-27T10:10:57.506Z,37.69
2022-07-27T10:11:54.250Z,37.48
2022-07-27T10:12:55.150Z,36.85
2022-07-27T10:13:54.111Z,36.76
2022-07-27T10:14:50.741Z,37.13
2022-07-27T10:15:47.550Z,37.49
2022-07-27T10:16:49.109Z,37.61
2022-07-27T10:17:46.679Z,37.34
2022-07-27T10:19:14.019Z,37.83
2022-07-27T10:20:13.906Z,37.96
2022-07-27T10:21:11.651Z,36.72
2022-07-27T10:22:08.336Z,36.76
2022-07-27T10:23:05.035Z,36.25
2022-07-27T10:24:10.362Z,36.36
2022-07-27T10:25:08.707Z,35.91
2022-07-27T10:26:26.424Z,36.01
2022-07-27T10:27:28.430Z,35.36
2022-07-27T10:28:26.749Z,35.26
2022-07-27T10:29:24.724Z,35.02
2022-07-27T10:30:24.015Z,34.21
2022-07-27T10:31:28.787Z,33.36
2022-07-27T10:32:31.123Z,33.12
2022-07-27T10:33:48.837Z,33.55
2022-07-27T10:34:45.573Z,34.21
2022-07-27T10:35:42.770Z,33.87
2022-07-27T10:36:51.735Z,33.54
2022-07-27T10:38:07.327Z,32.84
2022-07-27T10:39:07.949Z,32.94
2022-07-27T10:40:26.228Z,32.21
2022-07-27T10:41:24.230Z,32.31
2022-07-27T10:42:24.624Z,32.82
2022-07-27T10:43:22.387Z,33.55
2022-07-27T10:44:19.056Z,32.59
2022-07-27T10:45:19.411Z,32.31
2022-07-27T10:46:22.206Z,32.19
2022-07-27T10:47:33.391Z,32.21
2022-07-27T10:48:47.912Z,33.11
2022-07-27T10:49:45.579Z,32.64
2022-07-27T10:50:48.307Z,32.44
2022-07-27T10:51:45.217Z,31.86
2022-07-27T10:52:42.360Z,31.45
2022-07-27T10:54:10.426Z,31.76
2022-07-27T10:55:00.144Z,32.04
2022-07-27T10:55:57.127Z,32.95
2022-07-27T10:56:56.241Z,32.83
2022-07-27T10:57:54.336Z,32.43
2022-07-27T10:58:51.890Z,32.48
2022-07-27T11:00:20.204Z,32.29
2022-07-27T11:01:09.528Z,31.81
2022-07-27T11:02:13.942Z,32.17
2022-07-27T11:03:30.864Z,31.76
2022-07-27T11:04:27.590Z,31.67
2022-07-27T11:05:58.389Z,31.55
2022-07-27T11:07:15.074Z,31.32
2022-07-27T11:10:44.173Z,29.85
2022-07-27T11:11:41.064Z,30.64
2022-07-27T11:12:39.299Z,31.00
2022-07-27T11:13:38.916Z,30.94
2022-07-27T11:14:50.731Z,31.22
2022-07-27T11:16:22.983Z,31.23
2022-07-27T11:17:54.155Z,30.19
2022-07-27T11:18:44.087Z,30.05
2022-07-27T11:19:41.315Z,30.42
2022-07-27T11:20:37.927Z,29.83
2022-07-27T11:21:39.066Z,29.69
2022-07-27T11:23:59.157Z,29.62
2022-07-27T11:24:55.945Z,29.85
2022-07-27T11:26:00.735Z,30.11
2022-07-27T11:26:57.402Z,29.77
2022-07-27T11:27:54.036Z,30.37
2022-07-27T11:28:52.165Z,30.15
2022-07-27T11:29:48.830Z,29.68
2022-07-27T11:30:45.625Z,29.50
2022-07-27T11:31:55.357Z,29.26
2022-07-27T11:32:53.903Z,30.04
2022-07-27T11:34:08.631Z,29.40
2022-07-27T11:35:24.302Z,28.63
2022-07-27T11:36:22.187Z,28.89
2022-07-27T11:37:23.135Z,27.97
2022-07-27T11:38:20.067Z,27.88
2022-07-27T11:40:59.895Z,29.16
2022-07-27T11:42:11.783Z,28.73
2022-07-27T11:43:10.206Z,27.96
2022-07-27T11:44:17.283Z,27.92
2022-07-27T11:45:27.758Z,28.06
2022-07-27T11:46:27.869Z,27.97
2022-07-27T11:47:26.408Z,28.28
2022-07-27T11:48:23.096Z,28.13
2022-07-27T11:49:31.422Z,29.07
2022-07-27T11:50:28.309Z,29.23
2022-07-27T11:51:25.399Z,28.83
2022-07-27T11:52:23.766Z,28.40
2022-07-27T11:53:20.968Z,28.27
2022-07-27T11:54:25.265Z,28.51
2022-07-27T11:55:22.422Z,28.08
2022-07-27T11:56:26.854Z,27.84
2022-07-27T11:57:33.882Z,27.63
2022-07-27T11:58:30.856Z,27.40
2022-07-27T11:59:29.290Z,26.86
2022-07-27T12:00:40.479Z,27.00
2022-07-27T12:01:43.585Z,26.93
2022-07-27T12:02:51.395Z,26.84
2022-07-27T12:03:48.136Z,26.98
2022-07-27T12:04:49.538Z,27.32
2022-07-27T12:05:58.384Z,27.66
2022-07-27T12:07:04.870Z,27.29
2022-07-27T12:08:01.624Z,27.81
2022-07-27T12:08:58.466Z,28.01
2022-07-27T12:09:58.164Z,28.13
2022-07-27T12:11:01.198Z,27.39
2022-07-27T12:11:59.671Z,27.34
2022-07-27T12:12:56.318Z,27.08
2022-07-27T12:13:58.424Z,27.33
2022-07-27T12:15:11.662Z,27.28
2022-07-27T12:16:19.343Z,27.24
2022-07-27T12:17:20.657Z,27.31
2022-07-27T12:18:17.661Z,27.63
2022-07-27T12:19:23.110Z,27.93
2022-07-27T12:20:24.963Z,27.70
2022-07-27T12:21:22.149Z,29.07
2022-07-27T12:22:27.955Z,29.53
2022-07-27T12:23:29.709Z,29.23
2022-07-27T12:24:33.930Z,28.38
2022-07-27T12:25:32.770Z,28.04
2022-07-27T12:26:30.126Z,31.23
2022-07-27T12:27:27.651Z,30.99
2022-07-27T12:28:25.658Z,30.07
2022-07-27T12:29:22.851Z,30.63
2022-07-27T12:30:32.456Z,30.19
2022-07-27T12:31:29.218Z,30.18
2022-07-27T12:32:27.526Z,30.21
2022-07-27T12:33:37.762Z,31.67
2022-07-27T12:34:36.070Z,31.22
2022-07-27T12:35:45.742Z,30.98
2022-07-27T12:36:43.048Z,33.09
2022-07-27T12:37:42.707Z,33.73
2022-07-27T12:38:42.110Z,34.68
2022-07-27T12:39:41.540Z,35.61
2022-07-27T12:40:48.384Z,35.26
2022-07-27T12:41:45.086Z,34.53